Date,TemperatureHighF,TemperatureAvgF,TemperatureLowF,DewpointHighF,DewpointAvgF,DewpointLowF,HumidityHigh,HumidityAvg,HumidityLow,PressureMaxIn,PressureMinIn,WindSpeedMaxMPH,WindSpeedAvgMPH,GustSpeedMaxMPH,PrecipitationSumIn
2013-1-1,101.4,80.7,69.2,72.2,66.2,57.3,85,65,25,29.88,29.70,15,2,17,0.00
2013-1-2,76.8,72.1,68.9,69.4,64.8,60.6,92,78,65,30.05,29.72,19,6,22,0.00
2013-1-3,79.6,72.4,68.0,64.7,61.9,58.4,80,70,56,30.07,29.98,11,3,13,0.00
2013-1-4,83.2,74.8,64.8,67.4,64.1,61.2,89,71,51,30.02,29.90,9,1,12,0.00
2013-1-5,94.5,78.2,64.0,70.9,66.0,60.9,92,69,35,30.02,29.91,9,1,0,0.00
2013-1-6,85.2,76.2,68.1,70.0,67.2,64.7,91,75,55,30.17,30.01,10,1,13,0.00
2013-1-7,83.7,77.1,71.5,70.3,67.7,64.5,87,74,60,30.18,29.94,12,2,14,0.00
2013-1-8,105.1,87.8,67.3,65.7,59.7,51.1,88,47,19,29.92,29.41,21,5,26,0.00
2013-1-9,89.4,76.6,70.3,65.8,59.7,51.5,75,59,29,29.72,29.30,22,6,25,0.00
2013-1-10,78.7,73.3,70.3,64.7,62.4,58.9,80,69,60,29.85,29.71,8,1,13,0.00
2013-1-11,95.0,80.7,66.1,74.2,68.5,63.4,92,68,49,29.85,29.63,9,1,0,0.00
2013-1-12,110.0,85.0,72.9,71.5,68.3,62.1,86,63,22,29.88,29.64,16,4,20,0.02
2013-1-13,83.0,74.3,67.1,71.6,68.3,65.3,95,82,66,29.88,29.66,17,4,19,0.13
2013-1-14,72.5,68.5,64.3,66.6,60.0,54.0,95,75,56,30.12,29.80,25,7,26,0.15
2013-1-15,80.0,72.0,65.1,65.2,61.1,57.5,85,69,48,30.11,29.97,12,1,14,0.02
2013-1-16,86.3,74.9,61.4,68.6,63.8,59.5,94,71,43,29.97,29.82,7,0,0,0.00
2013-1-17,89.0,79.3,70.5,73.1,70.4,67.5,95,75,58,29.88,29.67,7,1,0,0.00
2013-1-18,113.2,90.1,72.0,75.9,68.2,61.5,92,58,20,29.69,29.44,26,2,26,0.17
2013-1-19,75.4,72.4,66.3,68.0,64.3,57.4,94,76,63,29.99,29.71,22,6,27,0.05
2013-1-20,70.0,68.4,67.0,68.8,67.1,64.6,97,96,92,30.02,29.94,9,1,0,0.83
2013-1-21,82.3,74.4,68.2,70.5,68.7,67.3,97,83,64,29.99,29.87,9,1,13,0.00
2013-1-22,91.2,76.7,66.9,74.3,69.5,65.4,96,80,52,29.86,29.72,8,1,0,0.06
2013-1-23,76.0,72.8,70.6,69.7,67.9,66.7,92,85,76,30.01,29.84,19,6,26,0.01
2013-1-24,79.8,73.7,68.1,72.1,69.2,66.0,94,86,75,30.03,29.91,17,4,17,0.06
2013-1-25,86.5,77.8,68.9,75.1,71.9,67.7,97,83,65,29.94,29.78,11,1,0,0.00
2013-1-26,89.0,78.7,72.1,76.8,72.2,69.8,94,81,56,29.88,29.79,9,1,14,0.17
2013-1-27,75.5,72.4,69.6,72.6,70.6,68.3,98,94,86,29.82,29.74,6,0,0,1.41
2013-1-28,71.0,70.0,68.0,70.4,69.4,67.4,98,98,97,29.79,29.62,11,1,15,4.65
2013-1-29,84.4,73.3,68.7,75.4,69.7,65.7,99,89,67,29.81,29.52,20,2,23,0.24
2013-1-30,77.3,72.5,69.3,69.6,67.8,66.1,94,85,74,29.97,29.82,12,3,15,0.00
2013-1-31,87.3,77.8,69.7,74.4,71.2,67.9,95,81,64,29.96,29.71,9,0,0,0.00
2013-2-1,89.4,71.8,65.2,74.7,68.1,62.9,96,89,54,29.73,29.63,19,3,25,0.68
2013-2-2,68.8,63.4,59.5,64.6,59.4,53.7,97,87,65,29.92,29.66,20,5,24,0.95
2013-2-3,74.8,66.7,59.1,63.0,57.1,53.3,83,72,52,30.05,29.87,20,4,26,0.01
2013-2-4,78.2,69.4,63.2,65.3,62.7,59.0,94,80,54,30.22,30.03,20,4,20,0.11
2013-2-5,80.8,71.1,64.1,66.9,63.7,61.1,91,78,57,30.23,30.15,10,1,12,0.00
2013-2-6,81.0,72.5,63.2,66.0,62.4,59.5,93,72,53,30.17,30.03,8,1,0,0.00
2013-2-7,85.1,72.9,61.0,67.7,62.8,59.0,94,72,46,30.07,29.96,10,1,0,0.00
2013-2-8,89.3,75.1,61.8,70.8,65.0,59.4,94,73,48,30.07,29.96,7,1,0,0.00
2013-2-9,92.4,77.1,63.6,72.9,67.5,61.8,96,75,40,30.03,29.86,7,1,7,0.00
2013-2-10,90.6,76.2,68.7,74.0,69.4,66.4,94,81,52,30.10,29.88,25,3,26,0.20
2013-2-11,75.7,70.0,65.5,68.7,66.8,64.3,97,90,78,30.10,30.00,15,3,18,0.09
2013-2-12,78.8,71.4,67.2,69.7,65.8,62.1,98,83,68,30.16,30.02,15,1,15,0.58
2013-2-13,79.3,72.0,66.1,63.7,61.2,58.8,85,70,53,30.22,30.13,8,0,0,0.00
2013-2-14,80.7,71.1,60.4,66.9,61.8,57.1,91,74,54,30.18,30.08,12,0,12,0.00
2013-2-15,78.2,70.9,66.4,68.1,65.0,61.4,90,82,61,30.16,30.09,8,0,0,0.05
2013-2-16,80.5,72.9,65.8,66.8,64.5,61.8,94,76,57,30.16,30.08,14,1,14,0.01
2013-2-17,79.6,71.2,62.9,66.7,62.7,59.6,93,75,56,30.16,30.08,14,0,14,0.09
2013-2-18,81.0,71.4,61.7,69.9,64.6,60.0,97,81,52,30.11,29.99,9,0,0,0.01
2013-2-19,83.1,73.3,64.0,72.0,66.9,62.1,95,81,62,30.01,29.90,7,0,0,0.00
2013-2-20,81.2,74.3,68.0,70.5,68.2,66.2,95,82,67,30.03,29.92,16,2,16,0.00
2013-2-21,81.6,74.2,67.3,71.0,67.8,65.7,96,81,64,30.05,29.97,17,1,17,0.40
2013-2-22,78.6,71.4,65.7,69.4,66.5,64.0,96,85,69,30.04,29.95,20,4,29,1.09
2013-2-23,75.2,70.9,67.4,73.4,69.7,65.9,98,96,92,29.95,29.70,18,4,22,2.58
2013-2-24,91.6,78.2,69.9,78.2,73.3,69.3,99,86,61,29.96,29.78,10,0,12,0.01
2013-2-25,88.8,77.8,70.3,75.7,72.0,69.0,97,83,62,30.05,29.93,6,0,12,0.00
2013-2-26,83.5,75.9,69.8,73.1,69.4,65.7,93,81,64,30.06,29.97,9,0,12,0.00
2013-2-27,89.7,76.6,68.5,71.2,67.4,64.5,91,75,47,30.02,29.83,11,0,16,0.00
2013-2-28,90.6,75.0,66.1,71.7,67.5,64.6,96,80,52,29.87,29.70,19,3,22,0.50
2013-3-1,68.9,65.0,62.4,68.0,64.1,61.4,98,97,96,30.02,29.75,25,9,32,3.94
2013-3-2,69.0,64.6,61.5,65.6,63.1,60.6,98,95,87,30.12,30.01,22,7,28,0.85
2013-3-3,77.5,72.1,66.7,67.9,65.4,64.0,94,80,70,30.13,30.06,14,3,18,0.01
2013-3-4,79.1,72.8,68.3,67.0,64.4,62.5,85,75,60,30.16,30.09,12,2,15,0.00
2013-3-5,80.7,74.0,67.9,67.5,65.2,63.2,87,75,59,30.16,30.08,8,1,12,0.00
2013-3-6,82.3,74.3,68.3,68.5,65.8,63.2,89,76,57,30.13,30.03,9,1,0,0.00
2013-3-7,83.5,72.3,62.8,68.6,64.2,61.3,97,78,53,30.13,30.02,8,1,0,0.00
2013-3-8,81.9,72.0,63.3,68.4,64.8,61.5,95,79,58,30.18,30.09,9,1,0,0.00
2013-3-9,83.2,75.2,69.2,69.0,65.9,62.9,88,74,52,30.16,30.06,7,1,0,0.00
2013-3-10,78.3,73.7,70.3,67.1,66.0,65.5,85,77,67,30.09,30.03,4,0,0,0.00
2013-3-11,82.3,73.7,66.6,69.2,66.8,64.4,95,80,62,30.14,30.05,7,1,0,0.00
2013-3-12,81.0,72.3,64.6,68.3,65.4,62.6,96,80,62,30.14,30.02,8,1,0,0.01
2013-3-13,83.8,71.9,62.1,68.8,64.6,61.1,97,80,54,30.03,29.82,7,1,0,0.01
2013-3-14,82.8,71.2,62.1,69.2,64.1,59.9,96,80,48,29.93,29.79,12,2,12,0.00
2013-3-15,74.8,71.4,68.3,70.6,68.3,66.5,94,90,83,30.02,29.91,13,3,13,0.13
2013-3-16,87.3,74.0,65.4,72.3,68.0,64.5,97,83,57,30.00,29.75,10,1,0,0.01
2013-3-17,73.2,70.4,66.3,68.5,59.2,51.8,94,69,50,30.08,29.74,28,6,31,0.00
2013-3-18,72.2,65.4,56.7,59.3,56.7,53.1,94,74,58,30.19,30.05,16,3,20,0.11
2013-3-19,75.5,66.6,57.1,61.7,58.7,55.4,95,77,55,30.27,30.16,10,1,13,0.00
2013-3-20,78.2,68.5,58.4,65.6,61.7,57.0,97,80,58,30.27,30.15,7,1,0,0.00
2013-3-21,85.5,71.3,58.7,68.1,61.9,56.7,95,75,43,30.18,29.93,9,1,0,0.00
2013-3-22,90.4,78.0,65.6,69.7,66.3,62.9,92,69,48,29.98,29.90,14,3,23,0.00
2013-3-23,90.7,79.2,73.8,70.2,66.3,62.6,86,66,47,30.02,29.90,11,2,14,0.00
2013-3-24,91.7,77.7,68.4,73.7,69.5,60.9,96,78,39,30.00,29.84,9,1,13,0.00
2013-3-25,80.9,73.1,63.9,70.6,67.6,61.5,96,83,66,30.08,29.93,13,2,14,0.00
2013-3-26,85.2,75.6,68.5,74.4,70.2,67.6,98,85,64,30.10,29.97,7,1,14,0.01
2013-3-27,90.3,76.1,66.1,72.3,68.5,64.9,97,79,50,30.09,29.97,8,1,0,0.00
2013-3-28,92.5,77.6,66.4,72.0,67.1,64.2,94,73,42,30.04,29.87,13,2,17,0.03
2013-3-29,72.0,68.1,64.2,69.1,57.6,51.3,96,70,58,30.09,29.91,15,3,16,0.17
2013-3-30,76.5,66.6,55.8,61.9,58.3,54.4,96,76,55,30.08,29.87,6,0,0,0.00
2013-3-31,79.2,69.3,61.9,62.1,59.4,53.8,93,73,43,29.99,29.79,9,2,13,0.00
2013-4-1,75.4,66.9,61.1,65.3,62.2,59.1,96,86,66,30.06,29.97,14,1,15,0.02
2013-4-2,79.1,68.0,58.6,63.8,59.9,55.4,97,78,48,30.01,29.92,9,1,13,0.01
2013-4-3,68.2,64.3,61.0,64.7,61.4,58.5,96,91,72,30.22,30.01,13,2,15,2.16
2013-4-4,71.1,64.7,60.0,65.0,60.5,57.5,97,87,68,30.38,30.23,8,1,0,0.86
2013-4-5,76.1,68.6,61.1,62.0,58.4,55.8,92,71,53,30.41,30.33,9,1,0,0.00
2013-4-6,73.9,66.0,59.9,63.0,60.5,57.3,95,83,66,30.36,30.23,9,1,12,0.00
2013-4-7,76.8,64.1,54.8,65.0,59.2,53.8,98,85,63,30.26,30.15,7,1,0,0.01
2013-4-8,75.1,65.1,55.1,64.6,59.3,54.1,97,83,62,30.27,30.19,8,1,0,0.01
2013-4-9,72.6,64.2,58.1,66.3,60.9,57.3,97,89,71,30.30,30.21,8,1,0,0.23
2013-4-10,77.1,65.8,56.3,64.4,60.1,55.5,99,83,59,30.26,30.15,6,0,0,0.01
2013-4-11,79.2,65.9,54.7,64.3,59.3,53.9,97,81,53,30.24,30.15,6,1,0,0.01
2013-4-12,78.4,68.2,58.7,66.2,61.2,57.3,97,80,55,30.29,30.18,6,0,0,0.00
2013-4-13,80.0,67.2,57.2,65.5,61.2,55.8,97,82,60,30.18,29.98,4,0,0,0.01
2013-4-14,83.0,68.0,56.7,64.9,60.8,55.6,98,80,50,29.98,29.85,6,1,0,0.01
2013-4-15,84.4,67.6,57.6,67.2,60.8,56.4,97,81,45,29.85,29.73,9,1,0,0.01
2013-4-16,70.7,66.6,63.1,64.4,62.4,59.8,95,87,75,29.96,29.81,10,2,14,0.23
2013-4-17,72.6,64.9,56.7,63.7,60.1,55.9,98,85,66,30.01,29.92,11,2,14,0.02
2013-4-18,77.6,66.5,58.0,64.5,60.6,56.8,97,82,57,29.96,29.86,8,1,0,0.00
2013-4-19,69.3,63.1,58.0,58.6,50.7,42.6,92,66,47,29.95,29.85,17,2,18,0.00
2013-4-20,61.9,57.9,56.2,59.5,54.3,41.9,97,88,55,29.98,29.83,16,2,24,1.50
2013-4-21,69.2,60.1,52.1,55.9,53.3,49.4,92,79,56,30.00,29.89,10,1,14,0.00
2013-4-22,77.7,64.2,55.8,58.4,55.1,53.1,94,75,44,29.88,29.74,11,1,12,0.01
2013-4-23,76.5,63.0,50.9,56.2,52.0,48.3,93,70,43,29.99,29.85,10,1,12,0.00
2013-4-24,74.9,61.7,50.6,55.5,52.1,48.8,94,74,40,30.10,29.99,8,1,0,0.00
2013-4-25,72.9,60.7,50.5,55.7,52.9,49.1,95,77,51,30.18,30.07,5,0,0,0.00
2013-4-26,77.8,63.1,51.0,57.3,50.9,45.6,93,67,40,30.23,30.10,9,2,0,0.00
2013-4-27,78.4,63.3,50.9,61.4,54.4,48.6,93,75,44,30.19,30.06,6,0,0,0.00
2013-4-28,82.9,67.0,52.0,57.2,52.3,47.8,94,65,30,30.12,30.02,11,2,14,0.01
2013-4-29,82.6,66.9,54.1,66.5,55.9,48.3,96,71,36,30.20,30.09,10,1,0,0.00
2013-4-30,75.1,68.4,62.5,67.8,65.4,61.3,97,91,77,30.26,30.16,11,2,13,0.01
2013-5-1,84.0,70.6,61.4,64.9,61.6,56.3,98,77,40,30.15,29.91,13,3,19,0.01
2013-5-2,68.0,64.2,58.8,61.9,53.6,49.2,82,69,57,30.32,30.05,17,6,22,0.00
2013-5-3,73.1,61.4,51.4,56.0,52.5,49.2,93,75,48,30.33,30.12,6,1,0,0.00
2013-5-4,76.1,63.7,53.3,59.7,51.5,47.7,90,66,40,30.22,30.00,20,3,20,0.00
2013-5-5,66.0,61.8,54.9,52.9,49.9,47.7,78,65,57,30.24,30.16,12,4,18,0.00
2013-5-6,66.7,59.3,52.5,58.1,52.9,47.9,93,80,67,30.30,30.21,15,3,17,0.08
2013-5-7,68.5,60.1,53.8,61.5,56.9,52.7,97,90,73,30.38,30.28,8,0,0,0.12
2013-5-8,71.5,60.9,51.8,62.6,56.5,50.9,98,86,64,30.44,30.35,8,0,0,0.03
2013-5-9,74.0,61.1,49.7,59.9,55.1,48.6,97,82,55,30.44,30.34,4,0,0,0.01
2013-5-10,73.0,60.3,48.5,60.4,54.8,47.4,97,83,59,30.44,30.34,7,1,0,0.01
2013-5-11,71.2,62.0,54.1,64.0,58.4,52.8,96,88,76,30.42,30.33,4,0,0,0.02
2013-5-12,72.5,61.3,50.6,62.9,57.3,49.5,98,88,68,30.34,30.18,4,0,0,0.01
2013-5-13,70.7,61.0,53.3,60.0,56.4,52.1,98,86,63,30.16,29.94,6,1,0,0.02
2013-5-14,68.4,61.1,56.0,59.9,58.0,54.1,95,90,73,29.94,29.84,5,0,0,0.09
2013-5-15,68.2,57.1,45.8,49.9,46.2,42.3,96,69,46,29.98,29.84,13,2,17,0.01
2013-5-16,70.5,61.6,53.9,51.7,48.2,46.1,77,62,48,29.89,29.77,15,3,19,0.00
2013-5-17,67.8,58.7,51.3,49.1,45.2,39.8,85,63,39,29.94,29.83,14,2,19,0.00
2013-5-18,67.2,56.4,47.0,46.8,42.8,40.5,81,62,42,29.99,29.89,11,2,12,0.00
2013-5-19,65.1,55.2,46.2,43.4,41.6,40.1,81,61,43,30.06,29.97,9,2,14,0.00
2013-5-20,67.3,54.6,44.5,47.7,43.1,38.9,81,67,43,30.09,29.98,10,2,12,0.00
2013-5-21,72.3,60.5,49.5,50.0,46.1,43.4,83,61,42,30.04,29.90,13,2,14,0.00
2013-5-22,62.8,57.9,51.1,55.4,50.6,44.8,94,77,64,29.98,29.80,6,0,0,0.14
2013-5-23,63.8,57.6,52.6,57.4,54.2,51.2,98,89,71,29.95,29.78,13,2,22,1.72
2013-5-24,67.7,63.7,58.1,56.4,53.7,49.7,91,70,56,30.09,29.94,22,8,26,0.09
2013-5-25,67.8,59.6,53.6,57.0,53.9,50.8,94,82,65,30.24,30.10,12,1,13,0.12
2013-5-26,70.0,55.8,46.1,51.0,48.2,45.0,96,78,45,30.30,30.20,7,1,0,0.01
2013-5-27,61.4,52.3,44.5,59.4,50.7,43.4,97,94,89,30.42,30.25,4,0,0,0.17
2013-5-28,67.0,58.5,51.7,61.9,55.9,50.9,98,91,76,30.50,30.41,6,0,0,0.02
2013-5-29,71.3,60.5,52.7,59.2,55.5,51.6,97,85,60,30.46,30.35,6,0,0,0.01
2013-5-30,72.8,58.5,48.1,58.3,53.1,47.3,98,84,53,30.43,30.30,7,1,0,0.01
2013-5-31,74.1,59.9,49.4,61.4,54.3,48.6,97,84,56,30.38,30.24,7,1,0,0.01
2013-6-1,70.1,59.8,52.1,60.3,55.8,51.0,97,88,66,30.22,29.95,11,1,12,0.09
2013-6-2,62.7,56.6,52.9,59.4,54.9,48.8,97,94,78,29.98,29.67,17,2,18,0.97
2013-6-3,64.5,57.2,52.5,51.0,47.4,44.1,93,70,57,30.17,29.98,11,2,18,0.01
2013-6-4,67.8,55.0,45.4,55.5,49.2,43.2,93,82,62,30.31,30.20,7,1,0,0.00
2013-6-5,66.7,54.8,46.9,57.1,51.5,46.1,97,89,71,30.32,30.19,7,1,0,0.01
2013-6-6,65.3,57.8,51.4,56.6,53.6,50.3,97,86,69,30.25,30.14,5,0,0,0.00
2013-6-7,73.0,62.8,57.3,61.9,57.7,52.2,93,84,67,30.24,30.07,10,1,15,0.00
2013-6-8,64.3,60.1,53.4,57.0,54.5,49.8,96,82,67,30.43,30.28,9,1,12,0.07
2013-6-9,68.1,57.1,47.1,59.7,53.4,46.0,97,88,71,30.37,30.22,3,0,0,0.00
2013-6-10,68.9,56.8,47.4,58.7,53.5,46.6,98,90,68,30.20,30.08,7,1,0,0.03
2013-6-11,69.5,59.0,50.4,57.3,53.6,49.3,97,84,61,30.16,30.04,8,0,0,0.01
2013-6-12,67.5,55.9,49.7,60.2,54.4,48.9,98,95,76,30.04,29.79,10,0,18,0.43
2013-6-13,67.0,57.6,49.6,57.9,52.6,48.9,98,85,62,29.80,29.68,16,2,20,0.01
2013-6-14,64.4,57.7,52.0,51.9,50.1,47.5,92,77,60,29.75,29.65,18,4,22,0.00
2013-6-15,65.3,58.9,53.4,50.4,48.2,44.8,86,69,53,29.91,29.73,12,2,15,0.01
2013-6-16,61.9,54.5,46.9,49.0,45.7,42.9,90,73,60,29.98,29.86,8,1,0,0.00
2013-6-17,61.7,52.8,44.5,50.3,45.6,40.9,90,77,63,29.85,29.76,13,2,14,0.00
2013-6-18,63.8,54.5,45.2,50.2,45.3,41.9,88,72,51,29.98,29.85,10,1,0,0.00
2013-6-19,60.7,53.7,49.8,51.8,48.8,46.3,92,84,67,30.22,30.00,19,3,21,0.20
2013-6-20,60.1,54.0,50.4,51.5,48.6,44.9,90,82,71,30.23,30.13,8,1,0,0.05
2013-6-21,62.2,53.2,46.1,52.8,48.4,44.1,94,84,69,30.16,30.08,11,1,0,0.00
2013-6-22,61.4,51.5,41.3,51.7,47.3,40.0,97,86,68,30.29,30.17,10,1,0,0.04
2013-6-23,60.5,53.8,50.6,56.0,52.1,49.2,97,94,81,30.36,30.25,8,1,0,0.43
2013-6-24,63.2,54.4,49.8,53.8,50.2,47.8,97,87,60,30.23,29.99,6,0,0,0.01
2013-6-25,60.6,51.1,43.6,49.5,46.3,42.1,95,84,64,30.01,29.96,6,0,0,0.00
2013-6-26,66.8,58.8,46.8,59.1,54.9,45.4,98,87,72,30.12,29.99,22,5,22,0.23
2013-6-27,61.8,59.3,57.1,60.1,57.4,55.0,96,94,81,30.17,30.11,10,0,18,0.65
2013-6-28,64.3,57.2,55.0,59.7,55.8,54.2,98,95,82,30.23,30.15,8,0,13,0.28
2013-6-29,60.8,57.3,54.7,57.7,55.8,53.6,97,94,87,30.25,30.16,7,0,0,0.76
2013-6-30,57.0,55.4,53.8,56.4,54.5,53.0,98,97,96,30.26,30.19,10,1,0,1.01
2013-7-1,62.4,56.9,53.9,58.7,55.4,52.9,97,95,86,30.23,30.15,10,2,15,0.49
2013-7-2,65.5,57.4,52.0,55.8,52.2,48.0,97,83,69,30.24,30.14,8,1,0,0.00
2013-7-3,65.5,53.8,44.8,55.0,49.7,44.3,98,87,60,30.27,30.15,6,1,0,0.02
2013-7-4,72.7,56.6,42.5,55.9,49.2,41.7,98,79,49,30.13,29.91,19,2,20,0.02
2013-7-5,71.6,60.1,50.4,53.3,47.2,36.1,92,66,41,30.04,29.83,14,2,17,0.00
2013-7-6,61.4,52.0,42.6,41.1,37.4,32.8,78,59,40,30.22,30.07,14,2,16,0.00
2013-7-7,64.1,50.3,39.8,44.9,39.1,35.6,85,68,40,30.38,30.25,8,1,0,0.00
2013-7-8,64.5,49.8,40.1,46.1,41.4,37.4,92,75,45,30.49,30.39,7,1,0,0.00
2013-7-9,58.9,52.2,43.7,52.9,49.0,41.2,97,89,75,30.57,30.44,11,1,13,0.21
2013-7-10,61.7,53.8,49.2,54.3,50.6,47.6,96,89,73,30.53,30.44,4,0,0,0.01
2013-7-11,64.1,53.9,44.8,55.1,50.1,43.8,98,88,71,30.56,30.47,6,0,0,0.00
2013-7-12,63.5,51.3,42.9,55.1,48.8,42.1,98,92,73,30.48,30.33,6,1,0,0.02
2013-7-13,67.1,53.4,43.2,57.2,50.3,42.4,98,90,70,30.39,30.32,6,0,0,0.01
2013-7-14,67.0,53.9,43.3,58.2,49.7,42.5,99,87,59,30.37,30.27,5,0,0,0.01
2013-7-15,67.2,57.8,52.0,59.0,54.7,50.4,97,90,73,30.28,30.19,5,0,0,0.01
2013-7-16,71.2,60.5,53.7,60.0,55.8,52.9,97,86,61,30.27,30.20,6,1,0,0.00
2013-7-17,74.7,61.6,52.3,61.2,55.5,51.2,97,82,54,30.26,30.15,7,1,0,0.00
2013-7-18,71.2,55.2,50.9,59.6,53.0,50.1,98,93,65,30.23,30.16,7,1,0,0.01
2013-7-22,58.2,54.0,50.0,38.6,37.4,36.3,62,54,46,30.13,30.07,3,0,0,0.00
2013-7-23,63.7,52.4,42.4,44.8,40.1,36.0,79,64,44,30.17,30.06,13,2,14,0.00
2013-7-24,62.9,56.8,49.8,50.2,45.5,40.3,71,66,61,30.35,30.19,18,3,23,0.00
2013-7-25,65.5,54.3,47.6,49.1,45.4,41.6,89,73,52,30.42,30.31,7,1,0,0.00
2013-7-26,67.8,53.4,42.5,48.5,43.3,40.2,96,72,41,30.34,30.23,14,2,16,0.00
2013-7-27,68.1,53.8,41.5,54.0,46.7,38.3,95,78,59,30.45,30.33,4,0,0,0.00
2013-7-28,65.7,52.7,42.4,56.6,49.3,41.3,97,89,69,30.44,30.30,5,1,0,0.01
2013-7-29,73.6,56.9,43.7,54.9,49.5,42.9,98,79,46,30.31,30.15,7,1,0,0.01
2013-7-30,70.7,58.5,47.2,56.9,50.5,44.9,95,77,49,30.15,30.04,12,2,0,0.00
2013-7-31,64.7,59.4,55.0,57.2,53.2,49.5,96,81,64,30.21,30.10,17,4,20,0.45
2013-8-1,64.7,56.2,46.1,53.5,50.2,44.1,95,81,63,30.21,30.12,9,1,0,0.00
2013-8-2,69.7,55.2,42.4,54.3,47.1,41.6,98,78,44,30.11,29.92,12,1,13,0.01
2013-8-3,66.9,57.3,48.9,46.1,42.9,40.6,79,60,43,30.04,29.90,14,3,18,0.00
2013-8-4,66.8,57.5,50.2,47.7,43.6,40.5,72,60,48,30.03,29.89,17,4,19,0.00
2013-8-5,66.5,56.1,46.7,44.7,41.8,38.4,77,60,42,30.10,29.96,20,3,20,0.00
2013-8-6,73.2,60.6,47.6,46.5,43.7,40.6,79,56,36,30.03,29.80,18,3,24,0.00
2013-8-7,64.6,58.2,52.2,53.8,49.7,44.7,92,74,61,29.92,29.78,10,1,0,0.06
2013-8-8,57.5,52.4,49.1,50.6,47.2,41.2,97,83,56,29.96,29.70,14,2,18,0.17
2013-8-9,67.2,56.8,45.5,46.8,43.8,40.4,84,63,45,30.09,29.94,12,2,13,0.00
2013-8-10,75.1,63.3,54.5,48.4,44.5,40.3,65,51,37,30.02,29.93,13,3,17,0.00
2013-8-11,74.4,59.3,47.3,52.7,47.0,42.4,85,66,39,30.07,29.92,9,0,0,0.00
2013-8-12,81.2,62.6,48.9,54.4,47.9,43.8,90,63,30,29.89,29.61,20,3,24,0.00
2013-8-13,71.4,58.2,46.5,43.5,39.0,32.4,83,52,30,30.01,29.88,13,2,18,0.00
2013-8-14,73.8,60.0,49.1,42.3,38.6,35.2,67,47,26,30.00,29.79,14,2,16,0.00
2013-8-15,63.7,57.8,48.6,41.4,37.1,32.0,73,47,31,30.18,29.80,17,3,18,0.00
2013-8-16,70.5,54.3,39.1,53.5,43.5,36.4,91,70,38,30.24,30.00,8,1,0,0.00
2013-8-17,73.5,60.4,48.7,56.4,51.2,40.3,94,74,43,29.94,29.75,19,3,26,0.00
2013-8-18,72.5,59.2,46.7,44.5,40.9,37.3,71,53,30,30.08,29.91,13,2,18,0.00
2013-8-19,73.5,60.4,46.3,43.9,39.3,37.0,76,48,32,29.93,29.71,18,3,24,0.00
2013-8-20,63.8,53.1,42.9,37.4,33.1,27.5,72,48,27,30.01,29.87,12,2,15,0.00
2013-8-21,64.7,51.3,41.3,41.9,36.4,31.3,75,58,35,30.03,29.92,11,2,14,0.00
2013-8-22,65.2,53.4,41.3,41.0,38.0,35.1,81,58,37,30.01,29.86,16,3,20,0.00
2013-8-23,70.5,59.4,51.1,45.4,42.4,39.8,66,54,39,29.94,29.82,17,4,28,0.00
2013-8-24,70.2,60.8,53.4,52.8,48.9,45.5,87,66,45,30.20,29.97,12,3,16,0.00
2013-8-25,77.3,60.3,45.7,54.9,48.1,42.1,96,70,30,30.27,30.12,13,2,14,0.00
2013-8-26,72.3,58.7,47.6,53.9,47.9,42.1,92,69,39,30.26,30.12,7,1,0,0.00
2013-8-27,72.4,59.7,48.8,53.6,50.5,47.2,95,74,46,30.18,30.05,8,1,0,0.00
2013-8-28,72.5,59.1,47.2,55.2,50.4,45.7,97,76,43,30.21,30.08,12,2,16,0.01
2013-8-29,73.3,60.2,47.1,59.8,53.6,46.0,97,81,58,30.26,30.08,7,0,0,0.01
2013-8-30,83.5,69.9,58.7,58.9,54.9,49.1,88,63,36,30.05,29.87,16,2,19,0.00
2013-8-31,77.1,63.8,52.2,52.7,47.1,43.3,79,58,31,30.17,30.02,10,2,0,0.00
2013-11-28,102.7,102.7,102.7,44.0,44.0,44.0,14,14,14,29.65,29.65,4,4,7,0.00
2013-12-7,75.5,75.4,74.9,55.0,54.8,53.7,49,49,48,30.05,30.04,9,7,9,0.00